createdAt,value
2022-07-25T00:03:18.424Z,4.87
2022-07-25T00:08:21.278Z,4.10
2022-07-25T00:13:23.833Z,4.30
2022-07-25T00:18:26.020Z,3.80
2022-07-25T00:23:28.142Z,4.80
2022-07-25T00:28:30.706Z,4.55
2022-07-25T00:33:32.857Z,5.20
2022-07-25T00:38:35.154Z,5.05
2022-07-25T00:43:37.459Z,4.97
2022-07-25T00:48:40.299Z,5.30
2022-07-25T00:53:42.651Z,6.75
2022-07-25T00:58:45.646Z,5.37
2022-07-25T01:03:47.854Z,5.97
2022-07-25T01:13:53.264Z,6.25
2022-07-25T01:18:55.497Z,6.07
2022-07-25T01:23:57.715Z,6.32
2022-07-25T01:29:00.276Z,5.68
2022-07-25T01:34:02.458Z,5.97
2022-07-25T01:39:05.241Z,5.25
2022-07-25T01:44:07.825Z,5.75
2022-07-25T01:49:10.674Z,6.22
2022-07-25T01:54:12.989Z,5.62
2022-07-25T01:59:15.661Z,5.40
2022-07-25T02:04:17.897Z,5.47
2022-07-25T02:09:20.145Z,6.45
2022-07-25T02:14:22.974Z,6.18
2022-07-25T02:19:25.132Z,6.85
2022-07-25T02:24:27.771Z,5.85
2022-07-25T02:29:30.321Z,5.43
2022-07-25T02:34:32.430Z,5.72
2022-07-25T02:39:34.606Z,6.00
2022-07-25T02:44:36.758Z,5.50
2022-07-25T02:49:39.283Z,6.50
2022-07-25T02:54:41.508Z,6.28
2022-07-25T02:59:44.076Z,5.45
2022-07-25T03:04:46.667Z,6.00
2022-07-25T03:09:48.868Z,6.22
2022-07-25T03:14:51.047Z,5.85
2022-07-25T03:19:53.216Z,6.22
2022-07-25T03:24:55.365Z,6.07
2022-07-25T03:29:58.348Z,6.78
2022-07-25T03:35:01.231Z,6.28
2022-07-25T03:40:04.852Z,6.03
2022-07-25T03:45:07.609Z,6.87
2022-07-25T03:50:10.041Z,6.40
2022-07-25T03:55:12.912Z,6.32
2022-07-25T04:05:17.255Z,5.97
2022-07-25T04:10:19.394Z,5.30
2022-07-25T04:15:21.753Z,5.87
2022-07-25T04:20:23.979Z,6.70
2022-07-25T04:25:27.899Z,6.95
2022-07-25T04:30:30.477Z,6.85
2022-07-25T04:35:33.189Z,6.12
2022-07-25T04:40:55.356Z,6.47
2022-07-25T04:45:57.681Z,6.20
2022-07-25T04:51:00.361Z,6.22
2022-07-25T04:56:02.919Z,5.78
2022-07-25T05:01:05.298Z,5.43
2022-07-25T05:06:15.282Z,5.62
2022-07-25T05:11:19.630Z,6.28
2022-07-25T05:16:22.323Z,6.35
2022-07-25T05:21:24.539Z,5.95
2022-07-25T05:26:26.785Z,6.87
2022-07-25T05:31:29.409Z,5.57
2022-07-25T05:36:31.632Z,7.35
2022-07-25T05:41:34.200Z,6.95
2022-07-25T05:46:37.330Z,6.25
2022-07-25T05:51:39.956Z,6.85
2022-07-25T05:56:45.062Z,6.62
2022-07-25T06:01:47.649Z,7.93
2022-07-25T06:12:00.455Z,8.05
2022-07-25T06:17:03.243Z,7.18
2022-07-25T06:22:05.461Z,8.52
2022-07-25T06:27:08.883Z,9.60
2022-07-25T06:32:11.610Z,9.57
2022-07-25T06:37:13.825Z,8.77
2022-07-25T06:42:16.057Z,9.20
2022-07-25T06:47:18.767Z,8.55
2022-07-25T06:52:21.068Z,7.90
2022-07-25T06:57:23.736Z,9.10
2022-07-25T07:02:25.846Z,10.60
2022-07-25T07:07:27.999Z,8.52
2022-07-25T07:12:30.171Z,8.57
2022-07-25T07:17:32.715Z,8.25
2022-07-25T07:22:48.438Z,7.28
2022-07-25T07:27:51.669Z,6.93
2022-07-25T07:32:53.834Z,6.57
2022-07-25T07:43:02.238Z,7.32
2022-07-25T07:48:06.121Z,6.60
2022-07-25T07:53:08.349Z,7.00
2022-07-25T07:58:12.307Z,7.15
2022-07-25T08:03:18.723Z,8.35
2022-07-25T08:08:26.640Z,6.78
2022-07-25T08:13:36.185Z,8.10
2022-07-25T08:18:38.312Z,6.72
2022-07-25T08:23:40.697Z,7.70
2022-07-25T08:28:42.939Z,6.80
2022-07-25T08:33:45.144Z,7.57
2022-07-25T08:38:47.321Z,7.28
2022-07-25T08:43:50.762Z,6.80
2022-07-25T08:48:53.328Z,6.55
2022-07-25T08:53:55.889Z,6.85
2022-07-25T08:58:59.130Z,7.25
2022-07-25T09:04:02.846Z,6.05
2022-07-25T09:09:05.480Z,6.37
2022-07-25T09:14:14.277Z,7.05
2022-07-25T09:19:22.939Z,6.28
2022-07-25T09:24:25.142Z,6.32
2022-07-25T09:29:31.339Z,7.25
2022-07-25T09:34:37.744Z,5.93
2022-07-25T09:39:47.305Z,6.37
2022-07-25T09:45:12.736Z,5.75
2022-07-25T09:50:15.458Z,6.05
2022-07-25T09:55:17.731Z,6.37
2022-07-25T10:00:23.467Z,5.82
2022-07-25T10:05:51.708Z,5.60
2022-07-25T10:10:53.993Z,7.18
2022-07-25T10:15:56.258Z,6.28
2022-07-25T10:21:50.117Z,6.18
2022-07-25T10:26:53.789Z,5.57
2022-07-25T10:32:06.840Z,5.93
2022-07-25T10:37:09.936Z,6.35
2022-07-25T10:42:16.418Z,6.25
2022-07-25T10:47:22.298Z,5.93
2022-07-25T10:52:28.587Z,6.95
2022-07-25T10:57:32.186Z,5.90
2022-07-25T11:02:34.839Z,5.57
2022-07-25T11:07:37.074Z,4.97
2022-07-25T11:12:39.273Z,6.50
2022-07-25T11:17:51.271Z,4.78
2022-07-25T11:22:55.090Z,4.75
2022-07-25T11:27:59.079Z,5.20
2022-07-25T11:33:01.552Z,4.53
2022-07-25T11:38:04.097Z,4.97
2022-07-25T11:43:19.170Z,4.50
2022-07-25T11:48:22.803Z,4.07
2022-07-25T11:53:26.016Z,4.18
2022-07-25T11:58:28.382Z,4.22
2022-07-25T12:03:38.524Z,4.80
2022-07-25T12:08:42.428Z,4.80
2022-07-25T12:13:44.663Z,4.68
2022-07-25T12:18:47.219Z,5.20
2022-07-25T12:23:49.596Z,4.22
2022-07-25T12:28:52.869Z,4.87
2022-07-25T12:33:55.947Z,5.30
2022-07-25T12:38:58.150Z,4.93
2022-07-25T12:44:02.779Z,4.80
2022-07-25T12:49:06.242Z,4.45
2022-07-25T12:54:09.146Z,5.28
2022-07-25T12:59:11.570Z,4.82
2022-07-25T13:04:13.779Z,5.12
2022-07-25T13:09:15.992Z,5.40
2022-07-25T13:14:18.810Z,5.43
2022-07-25T13:19:21.491Z,5.85
2022-07-25T13:24:24.303Z,6.20
2022-07-25T13:29:26.483Z,5.40
2022-07-25T13:34:29.685Z,4.87
2022-07-25T13:39:31.891Z,4.93
2022-07-25T13:44:34.138Z,6.12
2022-07-25T13:49:37.031Z,4.85
2022-07-25T13:54:39.541Z,5.22
2022-07-25T13:59:42.282Z,5.32
2022-07-25T14:04:44.465Z,5.07
2022-07-25T14:09:46.678Z,5.25
2022-07-25T14:14:48.826Z,4.87
2022-07-25T14:19:51.002Z,5.93
2022-07-25T14:24:53.257Z,5.50
2022-07-25T14:29:55.416Z,6.03
2022-07-25T14:35:00.817Z,5.68
2022-07-25T14:40:04.241Z,5.65
2022-07-25T14:45:08.350Z,6.82
2022-07-25T14:50:11.089Z,5.37
2022-07-25T14:55:13.330Z,5.68
2022-07-25T15:00:15.686Z,5.25
2022-07-25T15:05:17.989Z,5.43
2022-07-25T15:10:20.288Z,5.75
2022-07-25T15:15:22.506Z,5.05
2022-07-25T15:20:24.715Z,5.70
2022-07-25T15:25:59.927Z,5.32
2022-07-25T15:30:50.368Z,5.18
2022-07-25T15:35:52.503Z,4.95
2022-07-25T15:40:55.154Z,5.53
2022-07-25T15:45:57.889Z,5.90
2022-07-25T15:51:00.475Z,5.55
2022-07-25T15:56:02.822Z,6.50
2022-07-25T16:01:05.121Z,5.05
2022-07-25T16:06:07.647Z,5.28
2022-07-25T16:11:10.221Z,5.97
2022-07-25T16:16:12.611Z,4.37
2022-07-25T16:21:44.553Z,4.78
2022-07-25T16:26:48.076Z,4.70
2022-07-25T16:31:51.924Z,4.72
2022-07-25T16:43:17.061Z,4.75
2022-07-25T16:48:19.776Z,4.15
2022-07-25T16:53:22.103Z,3.60
2022-07-25T16:58:25.147Z,3.25
2022-07-25T17:03:27.337Z,3.33
2022-07-25T17:08:31.859Z,2.60
2022-07-25T17:13:34.089Z,2.33
2022-07-25T17:18:37.151Z,2.25
2022-07-25T17:23:39.329Z,2.15
2022-07-25T17:28:41.533Z,2.60
2022-07-25T17:33:44.146Z,2.10
2022-07-25T17:38:46.985Z,2.42
2022-07-25T17:43:49.212Z,2.50
2022-07-25T17:48:51.516Z,2.00
2022-07-25T17:53:54.161Z,1.83
2022-07-25T17:58:56.438Z,2.70
2022-07-25T18:03:58.655Z,1.80
2022-07-25T18:09:00.913Z,1.95
2022-07-25T18:14:03.239Z,2.03
2022-07-25T18:19:05.752Z,2.12
2022-07-25T18:24:08.421Z,1.85
2022-07-25T18:29:11.214Z,2.53
2022-07-25T18:34:13.444Z,1.95
2022-07-25T18:39:15.869Z,1.52
2022-07-25T18:44:19.342Z,1.92
2022-07-25T18:49:22.701Z,1.98
2022-07-25T18:54:24.934Z,1.62
2022-07-25T18:59:27.155Z,1.17
2022-07-25T19:04:30.148Z,2.12
2022-07-25T19:09:32.418Z,1.85
2022-07-25T19:14:34.649Z,1.15
2022-07-25T19:19:37.394Z,0.85
2022-07-25T19:24:39.703Z,1.00
2022-07-25T19:29:43.217Z,1.35
2022-07-25T19:34:45.432Z,0.70
2022-07-25T19:44:51.536Z,1.05
2022-07-25T19:49:54.587Z,1.23
2022-07-25T19:54:58.326Z,0.85
2022-07-25T20:00:00.573Z,1.25
2022-07-25T20:05:04.429Z,0.70
2022-07-25T20:10:07.196Z,1.08
2022-07-25T20:15:09.673Z,0.85
2022-07-25T20:20:12.804Z,0.90
2022-07-25T20:25:15.228Z,0.93
2022-07-25T20:30:17.985Z,1.23
2022-07-25T20:35:20.619Z,1.10
2022-07-25T20:40:22.910Z,1.02
2022-07-25T20:50:27.186Z,1.10
2022-07-25T20:55:31.340Z,1.08
2022-07-25T21:00:34.232Z,1.40
2022-07-25T21:05:40.020Z,0.90
2022-07-25T21:10:43.447Z,1.40
2022-07-25T21:15:45.650Z,0.75
2022-07-25T21:20:48.828Z,0.77
2022-07-25T21:25:51.002Z,0.80
2022-07-25T21:30:53.633Z,1.17
2022-07-25T21:35:56.272Z,0.68
2022-07-25T21:40:59.001Z,0.82
2022-07-25T21:46:01.459Z,1.20
2022-07-25T21:51:07.605Z,0.68
2022-07-25T21:56:10.130Z,1.12
2022-07-25T22:06:14.994Z,1.12
2022-07-25T22:11:39.115Z,0.82
2022-07-25T22:16:39.433Z,0.93
2022-07-25T22:21:42.386Z,1.58
2022-07-25T22:26:44.623Z,1.48
2022-07-25T22:31:48.624Z,1.33
2022-07-25T22:36:51.780Z,0.73
2022-07-25T22:41:54.617Z,0.73
2022-07-25T22:52:00.613Z,0.98
2022-07-25T22:57:06.966Z,1.20
2022-07-25T23:02:14.253Z,1.10
2022-07-25T23:07:16.720Z,0.80
2022-07-25T23:12:18.906Z,1.30
2022-07-25T23:17:21.534Z,1.20
2022-07-25T23:22:26.671Z,1.33
2022-07-25T23:27:29.793Z,1.15
2022-07-25T23:32:37.293Z,1.50
2022-07-25T23:37:39.897Z,1.20
2022-07-25T23:42:42.159Z,0.93
2022-07-25T23:52:46.671Z,1.15
2022-07-25T23:57:49.550Z,1.20
